Impacts METAR Board
IDs:

KBWI - Baltimore-Washington, MD, US

Updated at: 0100 UTC 28 May 2018
Potential Impact None Slight Moderate High
Time 27/13Z 27/14Z 27/15Z 27/16Z 27/17Z 27/18Z 27/19Z 27/20Z 27/21Z 27/22Z 27/23Z 28/00Z 28/01Z
Temp75 77 79 83 83 85 83 73 70 71 70 70 68
Dewpt71 71 72 73 71 72 73 67 70 70 70 69 67
Altim29.91 29.92 29.93 29.93 29.92 29.90 29.88 29.92 29.93 29.94 29.97 29.97 29.99
VIS10 10 10 10 10 8 10 8 10 7 2 8 10
CIG12 12 20 30 30 35 150 34 6 6 50 5 6
CoverOVCOVCBKNBKNBKNBKNBKNOVCOVCOVCOVCOVCOVC
FltCatMVFRMVFRMVFRMVFRMVFRVFRVFRVFRIFRIFRIFRIFRIFR
WX---------------TSRATSTS+TSRA BR----
WDir3002400000130201100304070
WSpd5 3 0 0 0 5 10 16 9 4 9 9 13
WGst-- -- -- -- -- -- -- 33 -- -- -- 19 --
Raw hourly METARs
KBWI 271254Z 30005KT 10SM OVC012 24/22 A2991 RMK AO2 SLP126 T02390217
KBWI 271354Z 24003KT 10SM OVC012 25/22 A2992 RMK AO2 SLP130 T02500217
KBWI 271454Z 00000KT 10SM SCT012 BKN020 26/22 A2993 RMK AO2 SLP133 T02610222 52009
KBWI 271554Z 00000KT 10SM BKN030 28/23 A2993 RMK AO2 SLP132 T02830228
KBWI 271654Z 00000KT 10SM BKN030 BKN150 28/22 A2992 RMK AO2 SLP129 T02830217
KBWI 271754Z VRB05KT 8SM FEW025 BKN035CB BKN150 29/22 A2990 RMK AO2 SLP124 CB OHD AND DSNT NE T02940222 10300 20233 58009
KBWI 271854Z 13010KT 10SM SCT040CB BKN150 BKN230 28/23 A2988 RMK AO2 SLP118 CB OHD MOV STATIONARY AND CB DSNT NW-N-NE ALSO MOV STATIONARY T02830228
KBWI 272000Z 02016G33KT 8SM -TSRA SCT022 BKN034CB BKN120 OVC180 23/19 A2992 RMK AO2 PK WND 36026/1955 WSHFT 1944 LTG DSNT W AND NW RAB1958 OCNL LTGICCG W-OHD-NE TS W-OHD MOV SE P0000 T02280194
KBWI 272103Z 11009KT 10SM TS BKN006 BKN032CB OVC055 21/21 A2993 RMK AO2 LTG DSNT W-NE RAE03 OCNL LTGICCC E-SE AND NW TS E-SE MOV SE AND NW-N MOV NE P0000 T02110211
KBWI 272201Z VRB04KT 7SM TS BKN006 BKN049CB OVC055 22/21 A2994 RMK AO2 LTG DSNT ALQDS FRQ LTGICCC W-N TS W-N MOV SE T02170211
KBWI 272259Z 03009KT 2SM R10/5000VP6000FT +TSRA BR SCT006 BKN050CB OVC060 21/21 A2997 RMK AO2 LTG DSNT ALQDS OCNL LTGICCC NW-N TS W-NW MOV SE P0004 T02110211
KBWI 272354Z 04009G19KT 8SM OVC005 21/21 A2997 RMK AO2 LTG DSNT SE-SW RAE43 TSE28 SLP147 P0011 60104 T02110206 10300 20211 50012
KBWI 280054Z 07013KT 10SM OVC006 20/19 A2999 RMK AO2 LTG DSNT S RAB14E33 SLP155 P0000 T02000194



Page loaded:  01:30 UTC  |   06:30 PM Pacific  |   07:30 PM Mountain  |   08:30 PM Central  |   09:30 PM Eastern

 

ADVISORIES

FORECASTS

FORECASTS

OBSERVATIONS

USER TOOLS

ABOUT US